Time;durP1;ratioP1;P1;durP2;ratioP2;P2;SDS_P1;SDS_P2;PMS_P1;PMS_P2;Temp;Humidity;BMP_temperature;BMP_pressure;BME280_temperature;BME280_humidity;BME280_pressure;Samples;Min_cycle;Max_cycle;Signal;HPM_P1;HPM_P2
2023/05/31 00:00:37;;;;;;;15.40;6.27;;;;;;;;;;4981670;28;20030;-72
2023/05/31 00:03:03;;;;;;;13.07;6.30;;;;;;;;;;4985655;28;20097;-72
2023/05/31 00:05:28;;;;;;;14.43;6.43;;;;;;;;;;4983897;28;20266;-72
2023/05/31 00:07:53;;;;;;;18.00;6.47;;;;;;;;;;4981077;28;20022;-72
2023/05/31 00:10:19;;;;;;;11.32;5.95;;;;;;;;;;4982571;28;20293;-72
2023/05/31 00:12:44;;;;;;;11.05;5.93;;;;;;;;;;4983024;28;20481;-72
2023/05/31 00:15:10;;;;;;;13.05;5.45;;;;;;;;;;4984401;28;20098;-72
2023/05/31 00:17:35;;;;;;;15.77;7.15;;;;;;;;;;4986509;28;20018;-72
2023/05/31 00:20:00;;;;;;;13.07;6.47;;;;;;;;;;4978608;28;20022;-72
2023/05/31 00:22:25;;;;;;;24.40;6.83;;;;;;;;;;4983253;28;20751;-72
2023/05/31 00:24:51;;;;;;;14.65;7.22;;;;;;;;;;4987989;28;20284;-72
2023/05/31 00:27:16;;;;;;;15.80;6.10;;;;;;;;;;4986142;28;20101;-72
2023/05/31 00:29:41;;;;;;;12.33;5.97;;;;;;;;;;4983862;28;20027;-72
2023/05/31 00:32:06;;;;;;;16.30;5.93;;;;;;;;;;4985959;28;20645;-72
2023/05/31 00:34:32;;;;;;;14.35;6.60;;;;;;;;;;4982852;28;20329;-72
2023/05/31 00:36:57;;;;;;;14.50;6.10;;;;;;;;;;4990494;28;20034;-72
2023/05/31 00:39:22;;;;;;;11.90;5.80;;;;;;;;;;4993109;28;20352;-72
2023/05/31 00:41:48;;;;;;;15.38;6.15;;;;;;;;;;4989999;28;20779;-72
2023/05/31 00:44:13;;;;;;;15.67;6.23;;;;;;;;;;4987813;28;20030;-72
2023/05/31 00:46:38;;;;;;;12.77;5.90;;;;;;;;;;4990204;28;20266;-72
2023/05/31 00:49:03;;;;;;;14.98;6.07;;;;;;;;;;4989346;28;20757;-72
2023/05/31 00:51:30;;;;;;;13.73;6.20;;;;;;;;;;4992192;28;20030;-72
2023/05/31 00:53:56;;;;;;;14.05;5.88;;;;;;;;;;4992125;28;20018;-71
2023/05/31 00:56:21;;;;;;;15.82;6.00;;;;;;;;;;4988602;28;20060;-71
2023/05/31 00:58:47;;;;;;;15.07;6.65;;;;;;;;;;4986626;28;20101;-71
2023/05/31 01:01:13;;;;;;;21.85;6.10;;;;;;;;;;4981924;28;20406;-71
2023/05/31 01:03:38;;;;;;;16.27;6.40;;;;;;;;;;4983699;28;20034;-71
2023/05/31 01:06:04;;;;;;;14.82;6.40;;;;;;;;;;4987009;28;20032;-71
2023/05/31 01:08:29;;;;;;;16.17;6.85;;;;;;;;;;4989527;28;20044;-72
2023/05/31 01:10:57;;;;;;;16.80;6.80;;;;;;;;;;4985407;28;20022;-72
2023/05/31 01:13:32;;;;;;;11.18;6.10;;;;;;;;;;4986280;28;20041;-72
2023/05/31 01:16:02;;;;;;;20.48;6.40;;;;;;;;;;4984371;28;20057;-72
2023/05/31 01:18:39;;;;;;;15.07;6.30;;;;;;;;;;4983758;28;20068;-72
2023/05/31 01:21:05;;;;;;;14.30;6.22;;;;;;;;;;4983901;28;20110;-72
2023/05/31 01:24:00;;;;;;;18.70;7.07;;;;;;;;;;4987988;28;20101;-72
2023/05/31 01:26:41;;;;;;;17.35;6.50;;;;;;;;;;4988898;28;20014;-72
2023/05/31 01:29:13;;;;;;;14.18;6.15;;;;;;;;;;4989824;28;20018;-72
2023/05/31 01:31:39;;;;;;;18.55;6.95;;;;;;;;;;4990457;28;20033;-72
2023/05/31 01:34:05;;;;;;;10.40;5.85;;;;;;;;;;4991365;28;20030;-72
2023/05/31 01:36:31;;;;;;;18.63;7.05;;;;;;;;;;4983068;28;20397;-72
2023/05/31 01:38:56;;;;;;;12.77;5.50;;;;;;;;;;4982885;28;21421;-72
2023/05/31 01:41:23;;;;;;;12.00;5.80;;;;;;;;;;4985510;28;20026;-72
2023/05/31 01:43:49;;;;;;;13.85;5.57;;;;;;;;;;4991526;28;20038;-72
2023/05/31 01:46:16;;;;;;;15.68;5.70;;;;;;;;;;4985004;28;20049;-72
2023/05/31 01:48:42;;;;;;;12.77;6.38;;;;;;;;;;4986344;28;20034;-72
2023/05/31 01:51:09;;;;;;;14.43;6.13;;;;;;;;;;4990739;28;20018;-72
2023/05/31 01:53:34;;;;;;;18.63;7.03;;;;;;;;;;4986388;28;20784;-72
2023/05/31 01:56:00;;;;;;;13.37;5.03;;;;;;;;;;4983780;28;20026;-72
2023/05/31 01:58:27;;;;;;;13.52;6.03;;;;;;;;;;4984655;28;20400;-72
2023/05/31 02:00:53;;;;;;;15.05;5.55;;;;;;;;;;4991762;28;20093;-72
2023/05/31 02:03:18;;;;;;;17.23;5.28;;;;;;;;;;4983981;28;20114;-72
2023/05/31 02:05:56;;;;;;;15.77;6.53;;;;;;;;;;4987155;28;20041;-72
2023/05/31 02:08:22;;;;;;;15.25;5.85;;;;;;;;;;4980721;28;20270;-72
2023/05/31 02:10:48;;;;;;;18.13;6.47;;;;;;;;;;4985532;28;20395;-72
2023/05/31 02:13:13;;;;;;;11.63;5.57;;;;;;;;;;4982834;28;20023;-72
2023/05/31 02:15:41;;;;;;;14.55;5.78;;;;;;;;;;4989615;28;20284;-72
2023/05/31 02:18:07;;;;;;;16.38;5.70;;;;;;;;;;4978547;28;20025;-72
2023/05/31 02:20:33;;;;;;;15.20;5.43;;;;;;;;;;4987397;28;20022;-72
2023/05/31 02:22:58;;;;;;;9.48;5.18;;;;;;;;;;4982446;28;20416;-72
2023/05/31 02:25:23;;;;;;;10.47;5.17;;;;;;;;;;4981928;28;20038;-72
2023/05/31 02:27:48;;;;;;;14.33;5.67;;;;;;;;;;4980845;28;20356;-72
2023/05/31 02:30:13;;;;;;;16.50;5.83;;;;;;;;;;4982052;28;20365;-72
2023/05/31 02:32:39;;;;;;;12.40;5.40;;;;;;;;;;4985995;28;20277;-72
2023/05/31 02:35:05;;;;;;;12.77;5.60;;;;;;;;;;4981193;28;20369;-72
2023/05/31 02:37:31;;;;;;;13.30;4.95;;;;;;;;;;4986024;28;20037;-72
2023/05/31 02:39:56;;;;;;;19.20;5.82;;;;;;;;;;4989627;28;20035;-72
2023/05/31 02:42:21;;;;;;;12.35;5.20;;;;;;;;;;4988949;28;20022;-72
2023/05/31 02:44:46;;;;;;;11.63;5.07;;;;;;;;;;4988076;28;20120;-72
2023/05/31 02:47:12;;;;;;;15.25;5.72;;;;;;;;;;4982524;28;20292;-72
2023/05/31 02:49:37;;;;;;;13.20;5.20;;;;;;;;;;4989796;28;20037;-72
2023/05/31 02:52:02;;;;;;;10.57;5.07;;;;;;;;;;4981308;28;20266;-72
2023/05/31 02:54:27;;;;;;;12.88;5.10;;;;;;;;;;4988373;28;20356;-72
2023/05/31 02:56:53;;;;;;;20.63;6.07;;;;;;;;;;4988982;28;20029;-72
2023/05/31 02:59:18;;;;;;;17.08;4.97;;;;;;;;;;4980120;28;20365;-72
2023/05/31 03:01:43;;;;;;;15.77;5.80;;;;;;;;;;4985457;28;20034;-72
2023/05/31 03:04:08;;;;;;;8.87;5.03;;;;;;;;;;4976393;28;20039;-72
2023/05/31 03:06:33;;;;;;;13.90;6.33;;;;;;;;;;4987993;28;20328;-72
2023/05/31 03:08:58;;;;;;;14.40;5.82;;;;;;;;;;4985571;28;20683;-72
2023/05/31 03:11:25;;;;;;;16.40;4.83;;;;;;;;;;4978171;28;20031;-72
2023/05/31 03:13:50;;;;;;;17.25;5.18;;;;;;;;;;4983224;28;20625;-71
2023/05/31 03:16:16;;;;;;;12.43;5.37;;;;;;;;;;4980224;28;20086;-71
2023/05/31 03:18:42;;;;;;;9.52;4.45;;;;;;;;;;4983824;28;20648;-71
2023/05/31 03:21:07;;;;;;;13.55;5.03;;;;;;;;;;4982061;28;20026;-71
2023/05/31 03:23:32;;;;;;;16.80;4.70;;;;;;;;;;4984706;28;20027;-71
2023/05/31 03:25:57;;;;;;;21.93;5.97;;;;;;;;;;4985139;28;20668;-72
2023/05/31 03:28:22;;;;;;;8.90;4.57;;;;;;;;;;4980875;28;20285;-72
2023/05/31 03:30:47;;;;;;;15.03;5.47;;;;;;;;;;4987427;28;20266;-72
2023/05/31 03:33:13;;;;;;;14.07;4.90;;;;;;;;;;4978936;28;20285;-72
2023/05/31 03:35:38;;;;;;;11.73;4.85;;;;;;;;;;4983577;28;20300;-72
2023/05/31 03:38:03;;;;;;;19.65;5.65;;;;;;;;;;4983142;28;20084;-72
2023/05/31 03:40:28;;;;;;;9.65;4.60;;;;;;;;;;4987761;28;20037;-72
2023/05/31 03:42:53;;;;;;;11.47;5.00;;;;;;;;;;4984431;28;20089;-72
2023/05/31 03:45:18;;;;;;;12.87;4.70;;;;;;;;;;4986608;28;20783;-72
2023/05/31 03:47:44;;;;;;;20.70;5.25;;;;;;;;;;4988638;28;20276;-72
2023/05/31 03:50:09;;;;;;;14.37;4.50;;;;;;;;;;4983815;28;20085;-72
2023/05/31 03:52:37;;;;;;;14.43;5.05;;;;;;;;;;4979890;28;20769;-72
2023/05/31 03:55:03;;;;;;;11.18;4.50;;;;;;;;;;4986254;28;20030;-72
2023/05/31 03:57:28;;;;;;;10.15;4.57;;;;;;;;;;4983499;28;20065;-72
2023/05/31 03:59:53;;;;;;;12.33;4.77;;;;;;;;;;4986389;28;20034;-72
2023/05/31 04:02:18;;;;;;;14.03;4.97;;;;;;;;;;4990790;28;20288;-72
2023/05/31 04:04:43;;;;;;;14.93;6.03;;;;;;;;;;4989053;28;20274;-72
2023/05/31 04:07:09;;;;;;;19.00;5.70;;;;;;;;;;4984612;28;20846;-72
2023/05/31 04:09:34;;;;;;;21.83;6.17;;;;;;;;;;4985737;28;20296;-72
2023/05/31 04:11:59;;;;;;;11.43;6.23;;;;;;;;;;4985485;28;20344;-72
2023/05/31 04:14:24;;;;;;;19.53;6.87;;;;;;;;;;4989579;28;20332;-72
2023/05/31 04:16:49;;;;;;;23.03;6.00;;;;;;;;;;4993417;28;20269;-72
2023/05/31 04:19:15;;;;;;;17.00;6.25;;;;;;;;;;4991970;28;20921;-72
2023/05/31 04:21:40;;;;;;;20.70;5.82;;;;;;;;;;4986773;28;20026;-72
2023/05/31 04:24:05;;;;;;;16.47;6.33;;;;;;;;;;4988865;28;20097;-72
2023/05/31 04:26:32;;;;;;;16.80;6.15;;;;;;;;;;4985162;28;20685;-72
2023/05/31 04:28:57;;;;;;;19.10;6.93;;;;;;;;;;4984544;28;20027;-72
2023/05/31 04:31:24;;;;;;;11.93;6.55;;;;;;;;;;4983699;28;20046;-72
2023/05/31 04:33:49;;;;;;;16.73;6.38;;;;;;;;;;4987991;28;20102;-72
2023/05/31 04:36:14;;;;;;;13.48;6.15;;;;;;;;;;4983406;28;20094;-72
2023/05/31 04:38:40;;;;;;;17.38;6.65;;;;;;;;;;4982832;28;20026;-72
2023/05/31 04:41:05;;;;;;;22.33;6.72;;;;;;;;;;4989815;28;20038;-72
2023/05/31 04:43:31;;;;;;;13.20;6.30;;;;;;;;;;4993252;28;20018;-72
2023/05/31 04:45:57;;;;;;;13.63;5.77;;;;;;;;;;4988630;28;20480;-71
2023/05/31 04:48:23;;;;;;;17.20;7.68;;;;;;;;;;4982431;28;20281;-71
2023/05/31 04:50:48;;;;;;;14.95;6.88;;;;;;;;;;4981347;28;20025;-71
2023/05/31 04:53:14;;;;;;;12.32;6.68;;;;;;;;;;4983835;28;20408;-71
2023/05/31 04:55:39;;;;;;;24.05;7.53;;;;;;;;;;4985464;28;20033;-72
2023/05/31 04:58:05;;;;;;;12.63;5.60;;;;;;;;;;4983829;28;20168;-71
2023/05/31 05:00:30;;;;;;;19.08;5.82;;;;;;;;;;4984837;28;20038;-72
2023/05/31 05:02:56;;;;;;;23.00;6.30;;;;;;;;;;4978071;28;20041;-71
2023/05/31 05:05:21;;;;;;;18.63;5.88;;;;;;;;;;4984234;28;20038;-71
2023/05/31 05:07:46;;;;;;;21.17;6.15;;;;;;;;;;4975712;28;20428;-71
2023/05/31 05:10:11;;;;;;;12.57;6.10;;;;;;;;;;4989163;28;20477;-71
2023/05/31 05:12:37;;;;;;;11.80;5.53;;;;;;;;;;4979899;28;20066;-71
2023/05/31 05:15:02;;;;;;;22.07;6.00;;;;;;;;;;4988153;28;20587;-71
2023/05/31 05:17:27;;;;;;;9.48;4.30;;;;;;;;;;4980303;28;20278;-71
2023/05/31 05:19:52;;;;;;;13.23;5.00;;;;;;;;;;4984799;28;20023;-71
2023/05/31 05:22:18;;;;;;;9.43;4.32;;;;;;;;;;4983190;28;20485;-71
2023/05/31 05:24:43;;;;;;;14.50;5.00;;;;;;;;;;4979058;28;20474;-71
2023/05/31 05:27:08;;;;;;;8.33;4.40;;;;;;;;;;4982452;28;20335;-72
2023/05/31 05:29:33;;;;;;;14.17;5.20;;;;;;;;;;4975615;28;20412;-72
2023/05/31 05:31:58;;;;;;;14.68;4.70;;;;;;;;;;4980971;28;20277;-72
2023/05/31 05:34:24;;;;;;;10.73;3.90;;;;;;;;;;4984080;28;20504;-72
2023/05/31 05:36:49;;;;;;;11.20;4.28;;;;;;;;;;4979312;28;20023;-72
2023/05/31 05:39:14;;;;;;;11.57;3.53;;;;;;;;;;4985851;28;20030;-72
2023/05/31 05:41:39;;;;;;;9.17;3.53;;;;;;;;;;4983988;28;20502;-72
2023/05/31 05:44:05;;;;;;;9.07;4.63;;;;;;;;;;4982583;28;20284;-71
2023/05/31 05:46:30;;;;;;;9.15;3.78;;;;;;;;;;4985973;28;20277;-71
2023/05/31 05:48:56;;;;;;;12.68;3.80;;;;;;;;;;4983174;28;20022;-71
2023/05/31 05:51:22;;;;;;;12.82;4.13;;;;;;;;;;4985728;28;20026;-71
2023/05/31 05:53:47;;;;;;;19.42;4.80;;;;;;;;;;4980371;28;20022;-72
2023/05/31 05:56:17;;;;;;;12.33;3.73;;;;;;;;;;4986736;28;20634;-72
2023/05/31 05:58:42;;;;;;;;;;;;;;;;;;4979469;28;20756;-71
2023/05/31 06:01:08;;;;;;;11.33;4.10;;;;;;;;;;4983446;28;19916;-72
2023/05/31 06:03:34;;;;;;;12.15;4.13;;;;;;;;;;4985118;28;20328;-72
2023/05/31 06:05:59;;;;;;;9.68;3.63;;;;;;;;;;4979475;28;20018;-71
2023/05/31 06:08:24;;;;;;;5.17;2.97;;;;;;;;;;4989176;28;20022;-71
2023/05/31 06:10:49;;;;;;;12.50;3.90;;;;;;;;;;4983298;28;20313;-72
2023/05/31 06:13:15;;;;;;;13.82;3.47;;;;;;;;;;4986476;28;20324;-72
2023/05/31 06:15:41;;;;;;;9.02;3.13;;;;;;;;;;4978303;28;20459;-72
2023/05/31 06:18:06;;;;;;;11.35;4.13;;;;;;;;;;4984997;28;20088;-72
2023/05/31 06:20:31;;;;;;;7.40;3.65;;;;;;;;;;4978885;28;20018;-72
2023/05/31 06:22:56;;;;;;;10.60;3.57;;;;;;;;;;4983538;28;20026;-72
2023/05/31 06:25:22;;;;;;;10.98;3.58;;;;;;;;;;4988841;28;20294;-72
2023/05/31 06:27:47;;;;;;;6.60;2.92;;;;;;;;;;4981171;28;20153;-72
2023/05/31 06:30:13;;;;;;;9.25;3.13;;;;;;;;;;4982058;28;20425;-72
2023/05/31 06:32:38;;;;;;;10.38;2.92;;;;;;;;;;4980446;28;20023;-72
2023/05/31 06:35:04;;;;;;;7.45;3.13;;;;;;;;;;4980715;28;20045;-71
2023/05/31 06:37:29;;;;;;;9.32;3.30;;;;;;;;;;4987229;28;20373;-71
2023/05/31 06:39:55;;;;;;;12.20;3.15;;;;;;;;;;4981063;28;20034;-71
2023/05/31 06:42:21;;;;;;;8.33;3.07;;;;;;;;;;4986964;28;20058;-71
2023/05/31 06:44:46;;;;;;;9.88;2.85;;;;;;;;;;4985095;28;20273;-71
2023/05/31 06:47:11;;;;;;;7.43;3.03;;;;;;;;;;4991269;28;20389;-71
2023/05/31 06:49:36;;;;;;;8.57;2.37;;;;;;;;;;4985083;28;20062;-70
2023/05/31 06:52:02;;;;;;;10.83;3.47;;;;;;;;;;4984446;28;20347;-70
2023/05/31 06:54:27;;;;;;;8.48;3.03;;;;;;;;;;4982567;28;20022;-70
2023/05/31 06:56:52;;;;;;;7.13;2.80;;;;;;;;;;4988270;28;20413;-70
2023/05/31 06:59:18;;;;;;;8.20;2.43;;;;;;;;;;4987588;28;20080;-70
2023/05/31 07:01:43;;;;;;;6.97;2.78;;;;;;;;;;4987839;28;20273;-70
2023/05/31 07:04:08;;;;;;;7.18;2.40;;;;;;;;;;4981824;28;20097;-70
2023/05/31 07:06:33;;;;;;;6.63;2.20;;;;;;;;;;4987162;28;20060;-70
2023/05/31 07:08:59;;;;;;;8.97;2.70;;;;;;;;;;4986479;28;20026;-71
2023/05/31 07:11:24;;;;;;;7.07;2.50;;;;;;;;;;4989902;28;20304;-71
2023/05/31 07:13:50;;;;;;;4.00;2.22;;;;;;;;;;4979946;28;20110;-71
2023/05/31 07:16:15;;;;;;;5.45;2.50;;;;;;;;;;4985239;28;20022;-70
2023/05/31 07:18:40;;;;;;;10.03;2.27;;;;;;;;;;4988166;28;20105;-70
2023/05/31 07:21:05;;;;;;;6.97;3.27;;;;;;;;;;4978399;28;20023;-71
2023/05/31 07:23:30;;;;;;;5.85;2.75;;;;;;;;;;4982510;28;20042;-71
2023/05/31 07:25:57;;;;;;;7.17;2.27;;;;;;;;;;4981975;28;20022;-71
2023/05/31 07:28:22;;;;;;;8.63;2.45;;;;;;;;;;4981143;28;20029;-71
2023/05/31 07:30:47;;;;;;;10.43;2.77;;;;;;;;;;4984709;28;20018;-71
2023/05/31 07:33:12;;;;;;;6.97;2.63;;;;;;;;;;4982591;28;20565;-71
2023/05/31 07:35:38;;;;;;;9.97;2.00;;;;;;;;;;4972448;28;20073;-70
2023/05/31 07:38:03;;;;;;;10.00;2.43;;;;;;;;;;4986821;28;20269;-69
2023/05/31 07:40:28;;;;;;;3.57;2.00;;;;;;;;;;4988916;28;20105;-69
2023/05/31 07:42:53;;;;;;;4.27;1.80;;;;;;;;;;4981012;28;20289;-69
2023/05/31 07:45:18;;;;;;;8.60;2.67;;;;;;;;;;4981452;28;20026;-69
2023/05/31 07:47:43;;;;;;;7.70;2.17;;;;;;;;;;4982465;28;20741;-70
2023/05/31 07:50:09;;;;;;;4.70;2.17;;;;;;;;;;4982564;28;20058;-69
2023/05/31 07:52:34;;;;;;;6.97;2.10;;;;;;;;;;4977397;28;20065;-69
2023/05/31 07:54:59;;;;;;;8.60;1.98;;;;;;;;;;4986811;28;20018;-69
2023/05/31 07:57:24;;;;;;;3.40;1.57;;;;;;;;;;4987802;28;20022;-69
2023/05/31 07:59:52;;;;;;;7.50;2.50;;;;;;;;;;4980943;28;20030;-69
2023/05/31 08:02:18;;;;;;;3.88;1.77;;;;;;;;;;4981459;28;20031;-69
2023/05/31 08:04:43;;;;;;;6.03;2.30;;;;;;;;;;4981792;28;20018;-69
2023/05/31 08:07:08;;;;;;;6.40;2.08;;;;;;;;;;4983107;28;20269;-69
2023/05/31 08:09:33;;;;;;;3.83;1.60;;;;;;;;;;4980784;28;20018;-69
2023/05/31 08:11:59;;;;;;;3.07;1.53;;;;;;;;;;4985061;28;20105;-69
2023/05/31 08:14:24;;;;;;;4.25;1.98;;;;;;;;;;4985968;28;20497;-69
2023/05/31 08:16:50;;;;;;;10.53;1.70;;;;;;;;;;4979747;28;20637;-69
2023/05/31 08:19:16;;;;;;;5.80;2.20;;;;;;;;;;4984569;28;20034;-68
2023/05/31 08:21:41;;;;;;;7.22;1.95;;;;;;;;;;4988078;28;20029;-68
2023/05/31 08:24:07;;;;;;;4.53;1.40;;;;;;;;;;4984975;28;20019;-69
2023/05/31 08:26:32;;;;;;;7.13;2.03;;;;;;;;;;4980395;28;20038;-70
2023/05/31 08:28:58;;;;;;;8.13;2.05;;;;;;;;;;4985651;28;20285;-70
2023/05/31 08:31:23;;;;;;;5.65;1.58;;;;;;;;;;4982482;28;20385;-71
2023/05/31 08:33:58;;;;;;;4.93;1.70;;;;;;;;;;4981418;28;20350;-71
2023/05/31 08:36:25;;;;;;;5.55;1.85;;;;;;;;;;4978992;28;20018;-71
2023/05/31 08:38:50;;;;;;;8.23;1.83;;;;;;;;;;4986095;28;20015;-71
2023/05/31 08:41:16;;;;;;;5.13;1.70;;;;;;;;;;4978183;28;20358;-71
2023/05/31 08:43:42;;;;;;;4.70;1.50;;;;;;;;;;4977964;28;20022;-71
2023/05/31 08:49:13;;;;;;;7.32;1.88;;;;;;;;;;4978124;28;20054;-71
2023/05/31 08:51:40;;;;;;;6.88;1.67;;;;;;;;;;5005329;28;20026;-71
2023/05/31 08:54:06;;;;;;;3.00;1.50;;;;;;;;;;4983258;28;20022;-71
2023/05/31 08:56:31;;;;;;;5.45;1.98;;;;;;;;;;4979297;28;20113;-71
2023/05/31 08:58:56;;;;;;;9.02;1.83;;;;;;;;;;4986686;28;20475;-71
2023/05/31 09:01:22;;;;;;;5.17;1.60;;;;;;;;;;4983752;28;20038;-71
2023/05/31 09:03:47;;;;;;;7.80;1.70;;;;;;;;;;4985971;28;20299;-71
2023/05/31 09:06:12;;;;;;;7.30;2.17;;;;;;;;;;4993365;28;20591;-71
2023/05/31 09:08:38;;;;;;;5.83;1.40;;;;;;;;;;4988237;28;20062;-71
2023/05/31 09:11:03;;;;;;;4.80;1.83;;;;;;;;;;4980397;28;20018;-71
2023/05/31 09:13:28;;;;;;;8.73;1.42;;;;;;;;;;4991299;28;20077;-71
2023/05/31 09:15:54;;;;;;;3.58;1.63;;;;;;;;;;4990201;28;20019;-71
2023/05/31 09:18:20;;;;;;;7.70;1.33;;;;;;;;;;4990188;28;20022;-71
2023/05/31 09:20:48;;;;;;;5.13;1.98;;;;;;;;;;4985941;28;20018;-71
2023/05/31 09:23:16;;;;;;;6.00;1.60;;;;;;;;;;4982734;28;20026;-69
2023/05/31 09:25:48;;;;;;;10.15;2.05;;;;;;;;;;4979863;28;20057;-69
2023/05/31 09:28:14;;;;;;;5.88;1.63;;;;;;;;;;4986250;28;20053;-69
2023/05/31 09:30:39;;;;;;;8.77;1.80;;;;;;;;;;4988643;28;20026;-69
2023/05/31 09:33:04;;;;;;;8.43;1.65;;;;;;;;;;4990510;28;20026;-69
2023/05/31 09:35:30;;;;;;;2.80;1.20;;;;;;;;;;4990076;28;20381;-69
2023/05/31 09:37:56;;;;;;;9.50;1.83;;;;;;;;;;4984861;28;20037;-69
2023/05/31 09:40:23;;;;;;;8.70;2.67;;;;;;;;;;4981315;28;20080;-69
2023/05/31 09:42:49;;;;;;;1.95;1.20;;;;;;;;;;4988850;28;20027;-69
2023/05/31 09:45:14;;;;;;;7.82;1.60;;;;;;;;;;4981890;28;20501;-69
2023/05/31 09:47:40;;;;;;;7.15;1.70;;;;;;;;;;4985304;28;20402;-69
2023/05/31 09:50:08;;;;;;;7.22;1.98;;;;;;;;;;4982910;28;20038;-69
2023/05/31 09:52:37;;;;;;;4.43;1.60;;;;;;;;;;4974650;28;20042;-69
2023/05/31 09:55:06;;;;;;;3.53;1.40;;;;;;;;;;4979928;28;20422;-69
2023/05/31 09:57:33;;;;;;;4.23;1.60;;;;;;;;;;4980869;28;20034;-69
2023/05/31 09:59:59;;;;;;;3.85;1.63;;;;;;;;;;4988850;28;20277;-69
2023/05/31 10:02:25;;;;;;;6.93;1.67;;;;;;;;;;4991608;28;20029;-69
2023/05/31 10:04:51;;;;;;;5.93;1.83;;;;;;;;;;4983374;28;20358;-69
2023/05/31 10:07:18;;;;;;;5.22;1.80;;;;;;;;;;4981514;28;20021;-69
2023/05/31 10:09:43;;;;;;;4.90;2.67;;;;;;;;;;4984133;28;20034;-69
2023/05/31 10:12:08;;;;;;;5.70;1.63;;;;;;;;;;4984984;28;20023;-69
2023/05/31 10:14:38;;;;;;;3.53;1.65;;;;;;;;;;4978204;28;20019;-69
2023/05/31 10:17:05;;;;;;;3.92;2.00;;;;;;;;;;4981711;28;20037;-69
2023/05/31 10:19:48;;;;;;;7.20;1.70;;;;;;;;;;4983597;28;20527;-69
2023/05/31 10:22:15;;;;;;;6.68;1.60;;;;;;;;;;4984937;28;20397;-69
2023/05/31 10:24:51;;;;;;;6.35;1.65;;;;;;;;;;4988358;28;20069;-69
2023/05/31 10:27:29;;;;;;;5.57;2.08;;;;;;;;;;4984329;28;20150;-69
2023/05/31 10:29:55;;;;;;;5.38;1.67;;;;;;;;;;4984748;28;20033;-69
2023/05/31 10:32:25;;;;;;;3.35;1.52;;;;;;;;;;4988957;28;20038;-71
2023/05/31 10:34:50;;;;;;;4.25;1.33;;;;;;;;;;4987602;28;20437;-71
2023/05/31 10:37:15;;;;;;;7.13;1.73;;;;;;;;;;4988355;28;20113;-71
2023/05/31 10:39:47;;;;;;;7.07;1.73;;;;;;;;;;4981753;28;20975;-71
2023/05/31 10:42:31;;;;;;;8.98;1.95;;;;;;;;;;4978373;28;20049;-71
2023/05/31 10:45:14;;;;;;;6.07;1.70;;;;;;;;;;4986557;28;20772;-72
2023/05/31 10:47:42;;;;;;;8.30;1.75;;;;;;;;;;4989411;28;20500;-71
2023/05/31 10:50:08;;;;;;;2.90;1.23;;;;;;;;;;4979908;28;20034;-71
2023/05/31 10:52:33;;;;;;;5.35;2.03;;;;;;;;;;4979056;28;20019;-72
2023/05/31 10:55:17;;;;;;;4.65;1.80;;;;;;;;;;4982490;28;20041;-71
2023/05/31 10:57:42;;;;;;;6.28;1.77;;;;;;;;;;4979867;28;20030;-71
2023/05/31 11:00:11;;;;;;;3.67;2.00;;;;;;;;;;4988074;28;20482;-71
2023/05/31 11:02:37;;;;;;;5.40;1.87;;;;;;;;;;4982168;28;20481;-71
2023/05/31 11:05:19;;;;;;;7.60;1.88;;;;;;;;;;4973429;28;20026;-71
2023/05/31 11:07:44;;;;;;;7.07;2.15;;;;;;;;;;4984867;28;20037;-71
2023/05/31 11:10:10;;;;;;;3.30;1.43;;;;;;;;;;4972340;28;20506;-71
2023/05/31 11:12:40;;;;;;;8.70;1.67;;;;;;;;;;4983568;28;20029;-71
2023/05/31 11:15:11;;;;;;;6.72;1.70;;;;;;;;;;4989980;28;20091;-71
2023/05/31 11:17:41;;;;;;;3.95;1.70;;;;;;;;;;4988708;28;20026;-71
2023/05/31 11:20:06;;;;;;;3.55;1.58;;;;;;;;;;4981937;28;20384;-71
2023/05/31 11:22:32;;;;;;;3.42;1.48;;;;;;;;;;4989291;28;20073;-71
2023/05/31 11:25:00;;;;;;;4.30;1.53;;;;;;;;;;4987043;28;20431;-71
2023/05/31 11:27:39;;;;;;;4.72;1.98;;;;;;;;;;4982835;28;22213;-69
2023/05/31 11:30:08;;;;;;;6.20;2.20;;;;;;;;;;4988065;28;20077;-69
2023/05/31 11:32:33;;;;;;;4.25;1.63;;;;;;;;;;4975655;28;20022;-69
2023/05/31 11:35:03;;;;;;;6.22;1.70;;;;;;;;;;4987761;28;20505;-69
2023/05/31 11:37:32;;;;;;;4.68;1.85;;;;;;;;;;4980577;28;20145;-71
2023/05/31 11:40:08;;;;;;;8.68;2.00;;;;;;;;;;4985408;28;20045;-71
2023/05/31 11:42:35;;;;;;;6.32;2.08;;;;;;;;;;4987769;28;20026;-71
2023/05/31 11:45:03;;;;;;;8.25;1.98;;;;;;;;;;4980931;28;20428;-71
2023/05/31 11:47:31;;;;;;;5.93;1.85;;;;;;;;;;4983268;28;20481;-71
2023/05/31 11:49:57;;;;;;;8.80;2.17;;;;;;;;;;4982501;28;20046;-71
2023/05/31 11:52:22;;;;;;;8.70;2.28;;;;;;;;;;4982426;28;20023;-71
2023/05/31 11:54:48;;;;;;;5.57;2.28;;;;;;;;;;4978362;28;20025;-71
2023/05/31 11:57:16;;;;;;;6.65;2.20;;;;;;;;;;4982138;28;20428;-72
2023/05/31 11:59:41;;;;;;;7.72;2.17;;;;;;;;;;4980720;28;20030;-69
2023/05/31 12:02:07;;;;;;;9.73;2.20;;;;;;;;;;4983703;28;20027;-69
2023/05/31 12:04:36;;;;;;;4.60;1.75;;;;;;;;;;4989078;28;20122;-69
2023/05/31 12:07:03;;;;;;;9.57;1.85;;;;;;;;;;4985723;28;20034;-69
2023/05/31 12:09:28;;;;;;;8.00;1.98;;;;;;;;;;4979012;28;20061;-70
2023/05/31 12:11:54;;;;;;;6.38;2.00;;;;;;;;;;4979975;28;20046;-71
2023/05/31 12:14:20;;;;;;;12.75;2.25;;;;;;;;;;4988506;28;20014;-71
2023/05/31 12:16:48;;;;;;;8.70;2.30;;;;;;;;;;4982975;28;20026;-71
2023/05/31 12:19:13;;;;;;;8.70;2.30;;;;;;;;;;4979384;28;20065;-71
2023/05/31 12:21:39;;;;;;;9.40;2.23;;;;;;;;;;4985934;28;20046;-71
2023/05/31 12:24:10;;;;;;;8.95;2.25;;;;;;;;;;4985292;28;20807;-71
2023/05/31 12:26:36;;;;;;;12.00;2.38;;;;;;;;;;4985674;28;20552;-71
2023/05/31 12:29:01;;;;;;;7.15;2.60;;;;;;;;;;4988139;28;20030;-71
2023/05/31 12:31:31;;;;;;;3.88;1.90;;;;;;;;;;4983800;28;20018;-70
2023/05/31 12:34:05;;;;;;;7.85;2.20;;;;;;;;;;4988457;28;20084;-70
2023/05/31 12:36:37;;;;;;;9.07;2.60;;;;;;;;;;4978379;28;20105;-69
2023/05/31 12:39:06;;;;;;;7.25;2.42;;;;;;;;;;4990319;28;20054;-69
2023/05/31 12:41:31;;;;;;;5.57;2.45;;;;;;;;;;4979726;28;20035;-69
2023/05/31 12:43:58;;;;;;;15.23;3.90;;;;;;;;;;4978589;28;20117;-69
2023/05/31 12:46:23;;;;;;;4.88;1.90;;;;;;;;;;4981070;28;20257;-70
2023/05/31 12:48:48;;;;;;;9.07;2.93;;;;;;;;;;4986006;28;20576;-70
2023/05/31 12:51:19;;;;;;;8.50;3.25;;;;;;;;;;4992266;28;20700;-69
2023/05/31 12:53:45;;;;;;;12.68;2.88;;;;;;;;;;4991330;28;20516;-71
2023/05/31 12:56:10;;;;;;;10.20;2.92;;;;;;;;;;4986419;28;20041;-69
2023/05/31 12:58:35;;;;;;;10.40;2.30;;;;;;;;;;4985351;28;20053;-69
2023/05/31 13:01:01;;;;;;;5.45;2.47;;;;;;;;;;4982915;28;20309;-72
2023/05/31 13:03:26;;;;;;;8.68;2.90;;;;;;;;;;4987238;28;20022;-72
2023/05/31 13:05:51;;;;;;;4.23;2.17;;;;;;;;;;4984830;28;20126;-72
2023/05/31 13:08:16;;;;;;;12.70;2.50;;;;;;;;;;4979851;28;20485;-72
2023/05/31 13:10:42;;;;;;;5.33;2.40;;;;;;;;;;4983947;28;20365;-70
2023/05/31 13:13:07;;;;;;;7.50;2.50;;;;;;;;;;4989948;28;20756;-70
2023/05/31 13:15:32;;;;;;;9.13;2.60;;;;;;;;;;4985571;28;20026;-70
2023/05/31 13:17:57;;;;;;;6.05;2.22;;;;;;;;;;4984964;28;20277;-70
2023/05/31 13:20:23;;;;;;;10.20;2.77;;;;;;;;;;4987333;28;20455;-70
2023/05/31 13:22:48;;;;;;;4.68;2.03;;;;;;;;;;4987109;28;20705;-70
2023/05/31 13:25:13;;;;;;;5.83;1.93;;;;;;;;;;4975351;28;20030;-70
2023/05/31 13:27:39;;;;;;;13.67;2.57;;;;;;;;;;4985857;28;20101;-72
2023/05/31 13:30:06;;;;;;;11.48;2.63;;;;;;;;;;4982723;28;20289;-70
2023/05/31 13:32:31;;;;;;;6.50;2.72;;;;;;;;;;4979949;28;20011;-70
2023/05/31 13:34:56;;;;;;;6.30;1.77;;;;;;;;;;4975217;28;20434;-70
2023/05/31 13:37:22;;;;;;;10.80;2.53;;;;;;;;;;4980474;28;20022;-70
2023/05/31 13:39:47;;;;;;;13.47;2.33;;;;;;;;;;4985745;28;20038;-70
2023/05/31 13:42:12;;;;;;;6.60;2.15;;;;;;;;;;4994339;28;20022;-70
2023/05/31 13:44:37;;;;;;;9.43;2.27;;;;;;;;;;4994594;28;20394;-70
2023/05/31 13:47:03;;;;;;;5.30;2.43;;;;;;;;;;4977635;28;20294;-70
2023/05/31 13:49:29;;;;;;;5.17;1.93;;;;;;;;;;4979599;28;20027;-70
2023/05/31 13:51:54;;;;;;;7.50;1.90;;;;;;;;;;4980877;28;20273;-70
2023/05/31 13:54:19;;;;;;;10.53;2.73;;;;;;;;;;4983903;28;20527;-70
2023/05/31 13:56:44;;;;;;;11.27;3.00;;;;;;;;;;4982073;28;20022;-70
2023/05/31 13:59:09;;;;;;;4.60;2.20;;;;;;;;;;4986482;28;20468;-70
2023/05/31 14:01:34;;;;;;;9.05;3.20;;;;;;;;;;4983171;28;20026;-70
2023/05/31 14:04:00;;;;;;;4.72;2.10;;;;;;;;;;4986374;28;20500;-70
2023/05/31 14:06:25;;;;;;;8.37;2.90;;;;;;;;;;4978259;28;20027;-72
2023/05/31 14:08:50;;;;;;;8.07;1.80;;;;;;;;;;4982654;28;20023;-72
2023/05/31 14:11:16;;;;;;;7.60;1.77;;;;;;;;;;4985582;28;20015;-72
2023/05/31 14:13:41;;;;;;;3.67;2.00;;;;;;;;;;4983900;28;20176;-72
2023/05/31 14:16:06;;;;;;;5.50;1.70;;;;;;;;;;4988590;28;20025;-72
2023/05/31 14:18:32;;;;;;;6.60;2.20;;;;;;;;;;4985295;28;20034;-72
2023/05/31 14:20:57;;;;;;;6.43;2.33;;;;;;;;;;4984906;28;20288;-72
2023/05/31 14:23:23;;;;;;;5.93;2.20;;;;;;;;;;4982426;28;20022;-72
2023/05/31 14:25:48;;;;;;;7.22;2.40;;;;;;;;;;4978216;28;20826;-72
2023/05/31 14:28:13;;;;;;;10.80;2.60;;;;;;;;;;4986930;28;20057;-72
2023/05/31 14:30:38;;;;;;;7.97;2.20;;;;;;;;;;4982128;28;20022;-72
2023/05/31 14:33:03;;;;;;;6.35;1.85;;;;;;;;;;4985554;28;20269;-72
2023/05/31 14:35:29;;;;;;;6.07;2.00;;;;;;;;;;4977943;28;20121;-72